createdAt,value
2018-10-07T00:07:26.197Z,1006.4
2018-10-07T00:28:47.493Z,1006.7
2018-10-07T00:39:01.485Z,1007.1
2018-10-07T00:49:15.756Z,1007.3
2018-10-07T00:59:31.243Z,1007.7
2018-10-07T01:09:43.383Z,1007.8
2018-10-07T01:19:57.682Z,1007.9
2018-10-07T01:30:42.783Z,1008.0
2018-10-07T01:41:28.029Z,1008.4
2018-10-07T01:52:13.089Z,1008.5
2018-10-07T02:02:26.617Z,1008.7
2018-10-07T02:13:13.240Z,1009.0
2018-10-07T02:23:57.897Z,1009.0
2018-10-07T02:34:11.337Z,1009.3
2018-10-07T02:45:31.798Z,1009.7
2018-10-07T02:55:43.018Z,1009.7
2018-10-07T03:05:57.521Z,1010.0
2018-10-07T03:16:11.717Z,1009.8
2018-10-07T03:26:25.931Z,1010.1
2018-10-07T03:36:38.150Z,1010.1
2018-10-07T03:46:52.483Z,1010.3
2018-10-07T03:57:06.861Z,1010.5
2018-10-07T04:09:22.811Z,1010.8
2018-10-07T04:20:50.384Z,1010.9
2018-10-07T04:32:37.788Z,1011.0
2018-10-07T04:55:36.499Z,1011.4
2018-10-07T05:07:09.071Z,1011.8
2018-10-07T05:19:41.806Z,1012.0
2018-10-07T05:32:11.821Z,1012.1
2018-10-07T06:02:38.025Z,1012.8
2018-10-07T06:18:45.405Z,1013.2
2018-10-07T06:56:50.279Z,1013.8
2018-10-07T07:52:45.589Z,1014.5
2018-10-07T08:19:36.991Z,1015.1
2018-10-07T08:32:15.612Z,1015.1
2018-10-07T08:44:37.082Z,1015.3
2018-10-07T09:10:41.780Z,1015.3
2018-10-07T09:27:11.331Z,1015.4
2018-10-07T09:56:25.204Z,1015.7
2018-10-07T10:10:37.161Z,1015.4
2018-10-07T10:38:25.221Z,1015.8
2018-10-07T10:52:07.411Z,1016.0
2018-10-07T11:02:24.899Z,1016.0
2018-10-07T11:12:38.052Z,1015.7
2018-10-07T11:22:51.458Z,1015.9
2018-10-07T11:35:46.793Z,1015.5
2018-10-07T11:46:02.274Z,1015.8
2018-10-07T11:56:18.925Z,1015.7
2018-10-07T12:06:33.122Z,1015.7
2018-10-07T12:16:44.530Z,1015.2
2018-10-07T12:26:58.572Z,1015.1
2018-10-07T12:37:44.325Z,1014.9
2018-10-07T12:47:58.544Z,1015.5
2018-10-07T12:58:12.893Z,1015.5
2018-10-07T13:08:59.292Z,1015.1
2018-10-07T13:20:48.541Z,1015.5
2018-10-07T13:32:17.941Z,1016.0
2018-10-07T13:43:57.273Z,1016.4
2018-10-07T13:56:12.272Z,1016.4
2018-10-07T14:06:26.232Z,1015.9
2018-10-07T14:16:40.643Z,1015.7
2018-10-07T14:27:59.624Z,1016.1
2018-10-07T14:38:13.257Z,1016.2
2018-10-07T15:42:48.935Z,1016.3
2018-10-07T15:53:03.553Z,1016.3
2018-10-07T16:16:16.729Z,1016.3
2018-10-07T16:27:27.268Z,1016.4
2018-10-07T16:38:18.295Z,1016.4
2018-10-07T16:50:59.913Z,1016.5
2018-10-07T17:02:06.019Z,1016.7
2018-10-07T17:27:17.686Z,1016.9
2018-10-07T18:18:20.302Z,1017.3
2018-10-07T19:28:25.602Z,1017.6
2018-10-07T19:38:43.251Z,1017.8
2018-10-07T19:51:41.843Z,1017.7
2018-10-07T20:39:21.421Z,1017.8
2018-10-07T20:52:31.404Z,1017.9
2018-10-07T21:04:17.492Z,1017.9
2018-10-07T21:16:14.151Z,1017.9
2018-10-07T21:29:15.596Z,1017.9
2018-10-07T21:42:46.441Z,1017.9
2018-10-07T21:54:53.606Z,1017.8
2018-10-07T22:07:01.401Z,1017.8
2018-10-07T22:41:21.270Z,1017.7
2018-10-07T23:07:02.526Z,1017.5
2018-10-07T23:19:18.022Z,1017.5
2018-10-07T23:29:34.263Z,1017.5
2018-10-07T23:41:50.102Z,1017.4
2018-10-07T23:55:52.666Z,1017.4
